createdAt,value
2018-05-04T00:02:24.179Z,2.53
2018-05-04T00:04:51.625Z,3.03
2018-05-04T00:07:19.287Z,1.03
2018-05-04T00:09:46.743Z,1.67
2018-05-04T00:12:14.199Z,1.73
2018-05-04T00:14:41.644Z,3.47
2018-05-04T00:17:09.195Z,3.50
2018-05-04T00:19:36.848Z,1.63
2018-05-04T00:22:04.339Z,2.23
2018-05-04T00:24:32.660Z,1.47
2018-05-04T00:27:00.123Z,2.90
2018-05-04T00:29:27.646Z,3.20
2018-05-04T00:31:55.111Z,1.53
2018-05-04T00:34:22.568Z,5.23
2018-05-04T00:36:50.036Z,3.07
2018-05-04T00:39:17.564Z,1.43
2018-05-04T00:41:45.243Z,1.00
2018-05-04T00:44:12.700Z,2.83
2018-05-04T00:46:40.176Z,3.40
2018-05-04T00:49:07.629Z,1.47
2018-05-04T00:51:35.152Z,1.77
2018-05-04T00:54:14.595Z,2.27
2018-05-04T00:56:42.224Z,3.27
2018-05-04T00:59:09.691Z,2.17
2018-05-04T01:01:37.135Z,4.40
2018-05-04T01:04:04.727Z,2.03
2018-05-04T01:06:32.487Z,1.27
2018-05-04T01:09:00.276Z,1.63
2018-05-04T01:11:28.048Z,1.83
2018-05-04T01:13:55.702Z,2.43
2018-05-04T01:16:23.259Z,1.70
2018-05-04T01:18:50.724Z,3.47
2018-05-04T01:21:18.479Z,2.83
2018-05-04T01:23:46.227Z,3.67
2018-05-04T01:26:13.696Z,2.87
2018-05-04T01:28:41.537Z,4.87
2018-05-04T01:31:08.995Z,3.87
2018-05-04T01:33:36.575Z,2.33
2018-05-04T01:36:04.041Z,2.50
2018-05-04T01:38:31.582Z,2.20
2018-05-04T01:40:59.217Z,3.27
2018-05-04T01:43:26.833Z,3.47
2018-05-04T01:45:54.443Z,2.30
2018-05-04T01:48:21.939Z,2.67
2018-05-04T01:50:49.389Z,2.10
2018-05-04T01:53:16.979Z,2.40
2018-05-04T01:55:44.478Z,1.77
2018-05-04T01:58:11.963Z,6.43
2018-05-04T02:00:39.634Z,3.13
2018-05-04T02:03:07.092Z,1.63
2018-05-04T02:05:34.878Z,1.33
2018-05-04T02:08:02.531Z,3.70
2018-05-04T02:10:30.089Z,2.80
2018-05-04T02:12:57.547Z,2.27
2018-05-04T02:15:25.164Z,1.77
2018-05-04T02:17:52.792Z,2.77
2018-05-04T02:20:20.549Z,2.50
2018-05-04T02:22:48.158Z,4.43
2018-05-04T02:25:15.667Z,1.30
2018-05-04T02:27:43.259Z,1.97
2018-05-04T02:30:10.883Z,2.30
2018-05-04T02:32:38.341Z,1.90
2018-05-04T02:35:05.889Z,2.07
2018-05-04T02:37:33.339Z,1.87
2018-05-04T02:40:00.873Z,2.03
2018-05-04T02:42:28.475Z,2.40
2018-05-04T02:44:55.940Z,3.00
2018-05-04T02:47:23.503Z,1.13
2018-05-04T02:49:51.261Z,1.40
2018-05-04T02:52:18.704Z,2.57
2018-05-04T02:54:46.500Z,1.20
2018-05-04T02:57:14.256Z,1.60
2018-05-04T02:59:41.724Z,1.57
2018-05-04T03:02:09.476Z,0.90
2018-05-04T03:04:36.947Z,3.07
2018-05-04T03:07:04.402Z,1.33
2018-05-04T03:09:31.911Z,1.27
2018-05-04T03:11:59.595Z,2.87
2018-05-04T03:14:27.538Z,0.60
2018-05-04T03:16:55.140Z,1.70
2018-05-04T03:19:22.896Z,3.47
2018-05-04T03:21:50.521Z,3.70
2018-05-04T03:24:18.027Z,2.93
2018-05-04T03:26:45.585Z,2.27
2018-05-04T03:29:13.060Z,0.90
2018-05-04T03:31:40.536Z,1.07
2018-05-04T03:34:08.189Z,5.07
2018-05-04T03:36:35.637Z,1.47
2018-05-04T03:39:03.094Z,1.23
2018-05-04T03:41:31.419Z,2.07
2018-05-04T03:43:59.011Z,2.70
2018-05-04T03:46:26.471Z,2.03
2018-05-04T03:48:53.935Z,2.67
2018-05-04T03:51:21.607Z,1.67
2018-05-04T03:53:49.143Z,2.67
2018-05-04T03:56:16.780Z,1.77
2018-05-04T03:58:56.088Z,2.47
2018-05-04T04:04:22.608Z,3.07
2018-05-04T04:06:50.372Z,1.87
2018-05-04T04:09:17.840Z,1.40
2018-05-04T04:11:45.462Z,1.30
2018-05-04T04:14:12.954Z,1.93
2018-05-04T04:16:40.508Z,0.97
2018-05-04T04:19:08.184Z,2.10
2018-05-04T04:21:35.643Z,1.33
2018-05-04T04:24:03.193Z,2.00
2018-05-04T04:26:30.660Z,0.90
2018-05-04T04:28:58.296Z,1.17
2018-05-04T04:31:25.759Z,1.30
2018-05-04T04:33:53.253Z,3.10
2018-05-04T04:36:20.683Z,1.67
2018-05-04T04:38:48.325Z,2.00
2018-05-04T04:41:15.875Z,1.67
2018-05-04T04:43:43.453Z,2.90
2018-05-04T04:46:11.100Z,1.97
2018-05-04T04:48:38.631Z,3.20
2018-05-04T04:51:06.090Z,1.83
2018-05-04T04:53:33.561Z,4.47
2018-05-04T04:56:01.007Z,2.53
2018-05-04T04:58:28.559Z,1.90
2018-05-04T05:00:56.332Z,1.07
2018-05-04T05:03:23.879Z,1.17
2018-05-04T05:05:52.098Z,3.10
2018-05-04T05:08:19.552Z,1.43
2018-05-04T05:10:47.054Z,1.10
2018-05-04T05:13:14.456Z,3.57
2018-05-04T05:15:41.916Z,1.43
2018-05-04T05:18:09.369Z,3.70
2018-05-04T05:20:36.823Z,2.70
2018-05-04T05:23:04.272Z,3.33
2018-05-04T05:25:31.728Z,2.10
2018-05-04T05:27:59.171Z,1.23
2018-05-04T05:30:26.624Z,2.70
2018-05-04T05:32:54.078Z,2.87
2018-05-04T05:35:21.575Z,1.23
2018-05-04T05:37:49.031Z,5.53
2018-05-04T05:40:16.535Z,5.43
2018-05-04T05:42:43.983Z,4.23
2018-05-04T05:45:11.635Z,4.13
2018-05-04T05:47:39.089Z,7.93
2018-05-04T05:50:06.579Z,4.23
2018-05-04T05:52:34.047Z,4.53
2018-05-04T05:55:01.520Z,4.07
2018-05-04T05:57:28.969Z,4.23
2018-05-04T05:59:56.460Z,6.70
2018-05-04T06:02:23.970Z,5.67
2018-05-04T06:04:51.604Z,6.30
2018-05-04T06:07:19.055Z,6.30
2018-05-04T06:09:46.542Z,8.73
2018-05-04T06:12:13.990Z,6.00
2018-05-04T06:14:41.448Z,5.97
2018-05-04T06:17:08.908Z,6.03
2018-05-04T06:19:36.363Z,8.10
2018-05-04T06:22:03.825Z,6.00
2018-05-04T06:24:31.396Z,10.07
2018-05-04T06:26:58.851Z,14.80
2018-05-04T06:29:26.495Z,8.40
2018-05-04T06:31:53.984Z,9.57
2018-05-04T06:34:21.444Z,3.97
2018-05-04T06:36:48.902Z,6.63
2018-05-04T06:39:16.457Z,6.50
2018-05-04T06:41:44.084Z,7.37
2018-05-04T06:44:11.591Z,5.57
2018-05-04T06:46:39.044Z,5.37
2018-05-04T06:49:06.691Z,3.83
2018-05-04T06:51:34.265Z,4.33
2018-05-04T06:54:01.703Z,4.83
2018-05-04T06:56:29.264Z,5.80
2018-05-04T06:58:56.771Z,5.10
2018-05-04T07:01:24.363Z,6.00
2018-05-04T07:03:51.816Z,10.50
2018-05-04T07:06:19.408Z,5.97
2018-05-04T07:08:47.035Z,6.73
2018-05-04T07:11:14.510Z,6.77
2018-05-04T07:13:42.124Z,5.63
2018-05-04T07:16:09.865Z,6.83
2018-05-04T07:18:37.483Z,5.60
2018-05-04T07:21:04.937Z,4.03
2018-05-04T07:23:32.385Z,6.70
2018-05-04T07:25:59.863Z,4.87
2018-05-04T07:28:27.335Z,5.97
2018-05-04T07:30:54.933Z,7.63
2018-05-04T07:33:22.572Z,14.40
2018-05-04T07:35:50.060Z,13.23
2018-05-04T07:38:17.539Z,8.73
2018-05-04T07:40:45.056Z,7.20
2018-05-04T07:43:12.610Z,11.47
2018-05-04T07:45:40.275Z,8.83
2018-05-04T07:48:07.728Z,11.90
2018-05-04T07:50:35.495Z,13.20
2018-05-04T07:53:02.960Z,11.53
2018-05-04T07:55:30.408Z,8.53
2018-05-04T07:57:57.879Z,11.97
2018-05-04T08:00:25.347Z,13.83
2018-05-04T08:02:53.059Z,15.37
2018-05-04T08:05:20.554Z,12.20
2018-05-04T08:07:48.243Z,13.10
2018-05-04T08:10:15.702Z,11.67
2018-05-04T08:12:43.166Z,7.67
2018-05-04T08:15:10.626Z,10.17
2018-05-04T08:17:38.083Z,11.90
2018-05-04T08:20:05.640Z,10.27
2018-05-04T08:22:33.038Z,9.00
2018-05-04T08:25:00.493Z,12.10
2018-05-04T08:27:27.952Z,8.10
2018-05-04T08:29:55.412Z,11.50
2018-05-04T08:32:22.867Z,6.47
2018-05-04T08:34:50.316Z,10.90
2018-05-04T08:37:17.777Z,8.10
2018-05-04T08:39:45.253Z,5.63
2018-05-04T08:42:12.715Z,6.33
2018-05-04T08:44:40.179Z,10.23
2018-05-04T08:47:07.659Z,9.50
2018-05-04T08:49:35.210Z,6.53
2018-05-04T08:52:02.658Z,6.17
2018-05-04T08:54:30.320Z,4.50
2018-05-04T08:56:57.772Z,4.83
2018-05-04T08:59:25.230Z,7.83
2018-05-04T09:01:52.691Z,8.60
2018-05-04T09:04:20.325Z,6.43
2018-05-04T09:06:47.931Z,5.77
2018-05-04T09:09:15.383Z,4.53
2018-05-04T09:11:43.045Z,4.90
2018-05-04T09:14:10.531Z,5.33
2018-05-04T09:16:38.023Z,5.40
2018-05-04T09:19:05.488Z,6.03
2018-05-04T09:21:32.962Z,4.73
2018-05-04T09:24:00.427Z,5.03
2018-05-04T09:26:28.063Z,7.50
2018-05-04T09:28:55.672Z,5.53
2018-05-04T09:31:23.295Z,5.27
2018-05-04T09:33:50.743Z,3.37
2018-05-04T09:36:18.206Z,4.90
2018-05-04T09:38:45.655Z,4.50
2018-05-04T09:41:13.328Z,6.67
2018-05-04T09:43:40.840Z,2.73
2018-05-04T09:46:08.502Z,4.80
2018-05-04T09:48:36.263Z,3.73
2018-05-04T09:51:03.991Z,4.87
2018-05-04T09:53:31.435Z,4.60
2018-05-04T09:55:58.970Z,4.23
2018-05-04T09:58:26.342Z,4.90
2018-05-04T10:00:53.795Z,2.67
2018-05-04T10:03:21.260Z,2.13
2018-05-04T10:05:48.738Z,3.07
2018-05-04T10:08:16.220Z,3.43
2018-05-04T10:10:43.991Z,3.47
2018-05-04T10:13:11.488Z,8.53
2018-05-04T10:15:39.195Z,19.53
2018-05-04T10:18:06.768Z,16.43
2018-05-04T10:20:34.298Z,12.67
2018-05-04T10:23:01.753Z,6.13
2018-05-04T10:25:29.208Z,11.90
2018-05-04T10:27:56.829Z,6.97
2018-05-04T10:30:24.283Z,11.37
2018-05-04T10:32:51.940Z,7.17
2018-05-04T10:35:19.492Z,9.23
2018-05-04T10:37:47.261Z,11.63
2018-05-04T10:40:14.868Z,7.20
2018-05-04T10:42:42.344Z,6.70
2018-05-04T10:45:09.835Z,12.30
2018-05-04T10:47:37.302Z,8.87
2018-05-04T10:50:04.747Z,9.40
2018-05-04T10:52:32.198Z,9.43
2018-05-04T10:55:00.339Z,10.80
2018-05-04T10:57:28.233Z,8.53
2018-05-04T10:59:56.003Z,9.83
2018-05-04T11:02:23.476Z,5.67
2018-05-04T11:04:50.940Z,4.33
2018-05-04T11:07:18.452Z,8.43
2018-05-04T11:09:45.951Z,9.83
2018-05-04T11:12:13.495Z,10.40
2018-05-04T11:14:41.268Z,5.07
2018-05-04T11:17:09.030Z,10.53
2018-05-04T11:19:36.495Z,5.13
2018-05-04T11:22:04.132Z,5.73
2018-05-04T11:24:31.618Z,6.90
2018-05-04T11:26:59.167Z,10.30
2018-05-04T11:29:26.807Z,8.53
2018-05-04T11:31:54.395Z,5.00
2018-05-04T11:34:21.964Z,8.47
2018-05-04T11:36:49.631Z,3.83
2018-05-04T11:39:17.287Z,6.43
2018-05-04T11:41:44.756Z,7.90
2018-05-04T11:44:12.199Z,6.97
2018-05-04T11:46:40.651Z,5.10
2018-05-04T11:49:08.318Z,4.83
2018-05-04T11:51:35.783Z,4.33
2018-05-04T11:54:03.268Z,4.90
2018-05-04T11:56:30.725Z,2.60
2018-05-04T11:58:58.271Z,3.60
2018-05-04T12:01:26.028Z,5.70
2018-05-04T12:03:53.808Z,6.27
2018-05-04T12:06:21.256Z,4.60
2018-05-04T12:08:48.884Z,4.00
2018-05-04T12:11:16.343Z,3.93
2018-05-04T12:13:43.850Z,5.00
2018-05-04T12:16:11.439Z,5.33
2018-05-04T12:18:38.860Z,6.07
2018-05-04T12:21:06.531Z,4.03
2018-05-04T12:23:33.996Z,6.53
2018-05-04T12:26:01.461Z,6.90
2018-05-04T12:28:28.912Z,5.70
2018-05-04T12:30:56.454Z,4.77
2018-05-04T12:33:24.400Z,4.73
2018-05-04T12:35:51.856Z,6.33
2018-05-04T12:38:19.385Z,3.53
2018-05-04T12:40:46.847Z,6.97
2018-05-04T12:43:14.300Z,3.80
2018-05-04T12:45:41.773Z,4.73
2018-05-04T12:48:09.303Z,5.43
2018-05-04T12:50:37.028Z,8.73
2018-05-04T12:53:04.489Z,9.37
2018-05-04T12:55:32.128Z,11.23
2018-05-04T12:57:59.740Z,11.05
2018-05-04T13:00:27.347Z,9.27
2018-05-04T13:02:54.959Z,6.40
2018-05-04T13:05:22.567Z,7.00
2018-05-04T13:07:50.049Z,5.27
2018-05-04T13:10:17.558Z,3.07
2018-05-04T13:12:45.012Z,3.77
2018-05-04T13:15:12.544Z,6.17
2018-05-04T13:17:40.249Z,6.33
2018-05-04T13:20:07.756Z,8.43
2018-05-04T13:22:35.245Z,5.03
2018-05-04T13:25:02.988Z,4.70
2018-05-04T13:27:30.451Z,5.23
2018-05-04T13:29:57.935Z,2.20
2018-05-04T13:32:25.380Z,4.17
2018-05-04T13:34:53.820Z,7.27
2018-05-04T13:37:21.496Z,8.80
2018-05-04T13:39:49.283Z,2.40
2018-05-04T13:42:16.944Z,4.57
2018-05-04T13:44:44.580Z,11.37
2018-05-04T13:47:11.960Z,2.73
2018-05-04T13:49:39.715Z,2.10
2018-05-04T13:52:07.489Z,2.23
2018-05-04T13:54:35.127Z,3.23
2018-05-04T13:57:02.624Z,2.20
2018-05-04T13:59:30.084Z,3.63
2018-05-04T14:01:57.540Z,3.87
2018-05-04T14:04:25.920Z,2.53
2018-05-04T14:06:53.371Z,2.00
2018-05-04T14:09:20.862Z,3.50
2018-05-04T14:11:48.308Z,3.10
2018-05-04T14:14:15.836Z,2.80
2018-05-04T14:16:43.459Z,6.13
2018-05-04T14:19:11.134Z,4.30
2018-05-04T14:21:38.988Z,6.13
2018-05-04T14:24:06.487Z,6.47
2018-05-04T14:26:34.035Z,8.97
2018-05-04T14:29:01.812Z,13.43
2018-05-04T14:31:29.268Z,9.73
2018-05-04T14:33:56.720Z,9.10
2018-05-04T14:36:24.188Z,6.00
2018-05-04T14:38:51.823Z,11.93
2018-05-04T14:41:19.307Z,4.97
2018-05-04T14:43:46.787Z,4.83
2018-05-04T14:46:14.290Z,3.00
2018-05-04T14:48:41.748Z,5.37
2018-05-04T14:51:09.282Z,4.07
2018-05-04T14:53:37.051Z,5.10
2018-05-04T14:56:04.560Z,3.20
2018-05-04T14:58:32.032Z,2.63
2018-05-04T15:00:59.488Z,4.87
2018-05-04T15:03:27.013Z,6.20
2018-05-04T15:05:54.473Z,2.03
2018-05-04T15:08:22.004Z,3.30
2018-05-04T15:10:49.512Z,3.80
2018-05-04T15:13:17.448Z,4.10
2018-05-04T15:15:45.050Z,6.87
2018-05-04T15:18:12.675Z,1.57
2018-05-04T15:20:40.217Z,3.80
2018-05-04T15:23:07.665Z,2.30
2018-05-04T15:25:35.149Z,3.37
2018-05-04T15:28:02.604Z,4.57
2018-05-04T15:30:30.071Z,3.53
2018-05-04T15:32:57.514Z,6.57
2018-05-04T15:35:24.980Z,4.27
2018-05-04T15:37:52.463Z,6.03
2018-05-04T15:40:20.112Z,5.87
2018-05-04T15:42:47.580Z,3.67
2018-05-04T15:45:15.061Z,2.30
2018-05-04T15:47:42.510Z,5.13
2018-05-04T15:50:15.583Z,4.20
2018-05-04T15:52:43.230Z,11.43
2018-05-04T15:55:10.691Z,8.43
2018-05-04T15:57:38.283Z,14.30
2018-05-04T16:00:05.779Z,13.37
2018-05-04T16:02:33.671Z,14.30
2018-05-04T16:05:01.268Z,6.43
2018-05-04T16:07:28.900Z,7.70
2018-05-04T16:09:56.489Z,11.03
2018-05-04T16:12:23.948Z,7.53
2018-05-04T16:14:51.587Z,5.80
2018-05-04T16:17:19.034Z,4.33
2018-05-04T16:19:46.659Z,3.13
2018-05-04T16:22:14.138Z,4.07
2018-05-04T16:24:41.568Z,5.50
2018-05-04T16:27:09.311Z,6.80
2018-05-04T16:29:37.067Z,5.57
2018-05-04T16:32:04.515Z,3.57
2018-05-04T16:34:32.180Z,6.50
2018-05-04T16:36:59.632Z,3.20
2018-05-04T16:39:27.224Z,3.43
2018-05-04T16:41:54.674Z,4.77
2018-05-04T16:44:22.121Z,5.97
2018-05-04T16:46:55.188Z,4.27
2018-05-04T16:49:25.698Z,6.10
2018-05-04T16:51:53.156Z,1.90
2018-05-04T16:54:20.979Z,4.57
2018-05-04T16:56:48.547Z,3.23
2018-05-04T16:59:16.007Z,2.17
2018-05-04T17:01:44.388Z,5.70
2018-05-04T17:04:11.839Z,3.07
2018-05-04T17:06:39.295Z,1.73
2018-05-04T17:09:06.768Z,2.03
2018-05-04T17:11:34.239Z,2.07
2018-05-04T17:14:01.671Z,2.77
2018-05-04T17:16:29.127Z,3.30
2018-05-04T17:18:56.580Z,4.47
2018-05-04T17:21:24.141Z,3.20
2018-05-04T17:23:51.775Z,3.63
2018-05-04T17:26:19.276Z,2.37
2018-05-04T17:28:46.719Z,1.60
2018-05-04T17:31:14.195Z,3.33
2018-05-04T17:33:41.730Z,3.33
2018-05-04T17:36:09.392Z,2.47
2018-05-04T17:38:36.834Z,2.27
2018-05-04T17:41:04.424Z,2.50
2018-05-04T17:43:33.592Z,1.33
2018-05-04T17:46:01.055Z,3.67
2018-05-04T17:48:28.536Z,1.73
2018-05-04T17:50:56.918Z,2.53
2018-05-04T17:53:24.372Z,3.33
2018-05-04T17:55:51.940Z,2.63
2018-05-04T17:58:19.384Z,3.60
2018-05-04T18:00:47.152Z,2.27
2018-05-04T18:03:14.632Z,1.40
2018-05-04T18:05:42.293Z,2.87
2018-05-04T18:08:09.751Z,3.50
2018-05-04T18:10:37.207Z,2.27
2018-05-04T18:13:04.664Z,1.87
2018-05-04T18:15:32.199Z,1.83
2018-05-04T18:17:59.661Z,1.27
2018-05-04T18:20:27.290Z,2.53
2018-05-04T18:22:54.752Z,1.53
2018-05-04T18:25:22.260Z,2.87
2018-05-04T18:27:49.808Z,1.50
2018-05-04T18:30:17.436Z,1.80
2018-05-04T18:32:44.898Z,2.30
2018-05-04T18:35:12.379Z,1.57
2018-05-04T18:37:39.941Z,2.27
2018-05-04T18:40:07.707Z,1.70
2018-05-04T18:42:35.499Z,1.77
2018-05-04T18:45:03.011Z,3.30
2018-05-04T18:47:30.560Z,3.33
2018-05-04T18:49:58.143Z,3.07
2018-05-04T18:52:25.911Z,2.10
2018-05-04T18:54:53.355Z,1.70
2018-05-04T18:57:21.026Z,2.93
2018-05-04T18:59:48.468Z,2.13
2018-05-04T19:02:21.699Z,2.77
2018-05-04T19:04:49.215Z,2.37
2018-05-04T19:07:16.720Z,1.83
2018-05-04T19:09:44.178Z,2.53
2018-05-04T19:12:11.725Z,2.70
2018-05-04T19:14:39.259Z,1.50
2018-05-04T19:17:06.696Z,1.87
2018-05-04T19:19:34.315Z,2.10
2018-05-04T19:22:01.776Z,3.37
2018-05-04T19:24:29.264Z,3.93
2018-05-04T19:26:56.814Z,2.37
2018-05-04T19:29:24.262Z,1.47
2018-05-04T19:31:51.716Z,1.33
2018-05-04T19:34:19.496Z,2.07
2018-05-04T19:36:47.142Z,2.13
2018-05-04T19:39:14.592Z,2.17
2018-05-04T19:41:42.050Z,3.57
2018-05-04T19:44:09.598Z,1.63
2018-05-04T19:46:37.242Z,1.47
2018-05-04T19:49:04.828Z,2.13
2018-05-04T19:51:32.412Z,1.60
2018-05-04T19:53:59.914Z,1.43
2018-05-04T19:56:27.456Z,1.73
2018-05-04T19:58:54.974Z,1.80
2018-05-04T20:01:22.419Z,2.00
2018-05-04T20:03:49.947Z,1.37
2018-05-04T20:06:17.536Z,1.47
2018-05-04T20:08:45.016Z,2.17
2018-05-04T20:11:13.384Z,1.30
2018-05-04T20:13:40.949Z,1.50
2018-05-04T20:16:08.580Z,1.80
2018-05-04T20:18:36.034Z,1.07
2018-05-04T20:21:03.489Z,2.80
2018-05-04T20:23:31.032Z,1.60
2018-05-04T20:25:58.532Z,1.43
2018-05-04T20:28:25.996Z,1.70
2018-05-04T20:30:53.759Z,2.13
2018-05-04T20:33:21.227Z,1.20
2018-05-04T20:35:48.843Z,4.50
2018-05-04T20:38:16.312Z,1.33
2018-05-04T20:40:43.760Z,1.53
2018-05-04T20:43:11.363Z,1.40
2018-05-04T20:45:38.807Z,1.10
2018-05-04T20:48:06.262Z,1.77
2018-05-04T20:50:34.040Z,1.13
2018-05-04T20:53:01.746Z,1.27
2018-05-04T20:55:29.143Z,2.13
2018-05-04T20:57:56.659Z,1.37
2018-05-04T21:00:24.184Z,1.80
2018-05-04T21:02:51.947Z,1.23
2018-05-04T21:05:19.580Z,9.30
2018-05-04T21:07:47.030Z,5.60
2018-05-04T21:10:14.501Z,7.77
2018-05-04T21:12:41.996Z,6.13
2018-05-04T21:15:09.560Z,5.90
2018-05-04T21:17:37.217Z,2.83
2018-05-04T21:20:04.676Z,2.07
2018-05-04T21:22:32.275Z,3.77
2018-05-04T21:24:59.789Z,2.87
2018-05-04T21:27:27.515Z,5.30
2018-05-04T21:29:55.060Z,2.63
2018-05-04T21:32:22.658Z,2.93
2018-05-04T21:34:50.250Z,3.80
2018-05-04T21:37:17.809Z,3.17
2018-05-04T21:39:45.473Z,2.93
2018-05-04T21:45:09.652Z,4.00
2018-05-04T21:47:37.125Z,1.97
2018-05-04T21:50:04.583Z,1.90
2018-05-04T21:52:32.051Z,3.87
2018-05-04T21:54:59.745Z,2.37
2018-05-04T21:57:27.243Z,1.90
2018-05-04T21:59:54.691Z,3.57
2018-05-04T22:02:22.292Z,6.83
2018-05-04T22:04:49.934Z,6.30
2018-05-04T22:07:17.380Z,6.20
2018-05-04T22:09:44.883Z,2.47
2018-05-04T22:12:12.332Z,4.30
2018-05-04T22:14:39.807Z,6.00
2018-05-04T22:17:07.252Z,4.87
2018-05-04T22:19:34.735Z,5.37
2018-05-04T22:22:02.201Z,2.93
2018-05-04T22:24:29.867Z,2.73
2018-05-04T22:26:57.423Z,7.33
2018-05-04T22:29:24.970Z,1.40
2018-05-04T22:31:52.708Z,2.07
2018-05-04T22:34:20.307Z,4.63
2018-05-04T22:36:47.777Z,3.20
2018-05-04T22:39:15.340Z,3.67
2018-05-04T22:41:42.806Z,4.70
2018-05-04T22:44:10.250Z,5.57
2018-05-04T22:46:37.696Z,5.23
2018-05-04T22:49:05.367Z,3.90
2018-05-04T22:51:32.978Z,3.83
2018-05-04T22:54:00.723Z,3.80
2018-05-04T22:56:28.189Z,2.93
2018-05-04T22:58:55.830Z,3.47
2018-05-04T23:01:23.301Z,6.90
2018-05-04T23:03:50.901Z,2.07
2018-05-04T23:06:18.534Z,4.30
2018-05-04T23:08:46.952Z,2.77
2018-05-04T23:11:14.408Z,2.60
2018-05-04T23:13:41.873Z,3.80
2018-05-04T23:16:09.350Z,2.87
2018-05-04T23:18:36.847Z,5.00
2018-05-04T23:21:04.648Z,2.03
2018-05-04T23:23:32.247Z,3.10
2018-05-04T23:25:59.731Z,2.00
2018-05-04T23:28:27.185Z,5.33
2018-05-04T23:30:54.632Z,4.70
2018-05-04T23:33:22.107Z,2.47
2018-05-04T23:35:49.698Z,2.17
2018-05-04T23:38:17.363Z,3.83
2018-05-04T23:40:44.895Z,3.37
2018-05-04T23:43:12.626Z,6.63
2018-05-04T23:45:40.099Z,4.57
2018-05-04T23:48:07.583Z,1.93
2018-05-04T23:50:35.335Z,2.50
2018-05-04T23:53:03.035Z,8.97
2018-05-04T23:55:30.484Z,3.00
2018-05-04T23:57:57.932Z,5.33
